Nathrop, CO (81236)

3:49 PM MST on January 30, 2015 (GMT -0700)
Mesa Antero | Change Station
CLOSE
Current Station
Personal Weather Station
Location: Nathrop, CO
Elevation: 8202 ft
Nearby Weather Stations

Elev 8202 ft 38.68 °N, 106.10 °W | Updated 39 seconds ago

Snow
Snow
31.8 °F
Feels Like 32 °F
N
0.0
Wind Variable Wind from ENE
Gusts 1.0 mph

Today
High -- | Low -- °F
--% Chance of Precip.
Yesterday
High -- | Low -- °F
Precip. -- in
7:12 AM 5:23 PM
Waxing Gibbous, 85% visible
Pressure 30.11 in
Visibility 0.8 miles
Clouds Overcast 800 ft
Windchill 32 °F
Dew Point 30 °F
Humidity 92%
Rainfall 0.00 in
Snow Depth Not available.
UV 0 out of 12
Pollen .30 out of 12
Air Quality Not available.
Flu Activity Not available.
METAR KAEJ 302235Z AUTO 00000KT 3/4SM -SN OVC008 00/M01 A3011 RMK AO2 T10021011

More Conditions Fewer Conditions

Pressure 30.11 in
Visibility 0.8 miles
Clouds Overcast 800 ft
Windchill 32 °F
Dew Point 30 °F
Humidity 92%
Rainfall 0.00 in
Snow Depth Not available.
UV 0 out of 12
Pollen .30 out of 12
Air Quality Not available.
Flu Activity Not available.
METAR KAEJ 302235Z AUTO 00000KT 3/4SM -SN OVC008 00/M01 A3011 RMK AO2 T10021011

More Conditions Fewer Conditions

10-Day Weather Forecast

Almanac

Astronomy

Jan. 30, 2015 Rise Set
Actual Time
Civil Twilight
Nautical Twilight
Astronomical Twilight
Moon
Length of Visible Light
Length of Day
Tomorrow will be .
, % of the Moon is Illuminated

Today's Extremes

State Highs State Lows

Community

WunderPhotos

Upload Photos

1,791,905 photos uploaded!

WunderBlogs® & News

Nearby

Air Quality

  Air Quality AQ Index Pollutant
Not available.

Snow Depth

Station Depth Elevation

Earthquake Activity

City Distance Mag. Time & Date
Minimum magnitude displayed is 2.5.

Coastal Water Temperatures

Place Temperature

Nearby Weather Stations